Terminal Aerodrome Forecast
Issued by NWS Charleston, WV

Current Version | Previous Version | Graphics & Text | Print | Product List | Glossary On
Versions: 1 2 3 4 5 6 7 8 9 10 11 12 13 14 15 16 17 18 19 20 21 22 23 24 25 26
289
FTUS41 KRLX 272100 AAA
TAFEKN
TAF AMD
KEKN 272100Z 2721/2818 29009G18KT P6SM -RA OVC050
      TEMPO 2722/2723 4SM SHRA BKN030
     FM272300 21008KT P6SM BKN050
     FM280800 VRB03KT 5SM BR BKN025
     FM281100 VRB03KT 1SM BR SCT025
     FM281400 VRB03KT P6SM FEW150=

USA.gov is the U.S. government's official web portal to all federal, state and local government web resources and services.